Main page
METAR-TAF:

METAR-TAF

Airports :

RAF Shawbury

Shawbury, England

latitude: 52-48N, longitude: 002-40W, elevation: 76 m

Current weather observation

The report was made 1 hour and 16 minutes ago, at 18:50 UTC
Wind 15 kt from the North/Northeast
Temperature 7°C
Humidity 57%
Pressure 1036 hPa
Visibility 10 km or more

METAR: EGOS 281850Z AUTO 03015KT 9999 OVC050/// 07/M01 Q1036

Time: 20:06 (20:06 UTC)


TAF: missing

Weather observations and forecasts of more than 4000 airports (METAR and TAF reports).

The available stations are represented by yellow and red dots on the map.

Hover mouse over dot to see the name of the station.

Then click to see weather observations and forecasts.

To change the map : click on the green buttons with a black cross to zoom in, on the green button with a dash to zoom out, or on the green arrows for adjacent maps.


METAR-TAF: